ANA13 RJTT-RJOO
Flight info
| Callsign | ANA13 |
|---|---|
| Flight time | 0h 47m |
| Altitude | 32000 |
| Route | LAXAS Y56 TOHME Y54 KOHWA Y546 AGPUK MIRAI ABENO IKOMA |
| Aircraft | B77W/H-SDE1E2E3FGHIJ2J3J4J5M1RWXY/LB1D1 |
Departure
| Time | 2026-05-08 15:56 |
|---|---|
| Airport | Tokyo Haneda International Airport (RJTT) |
Arrival
| Time | 2026-05-08 16:44 |
|---|---|
| Airport | Osaka Itami International Airport (RJOO) |
| Time | Latitude | Longitude | Altitude | Speed | Heading |
|---|---|---|---|---|---|
| 2026-05-08 15:26 | 35.55160 | 139.78956 | 32 ft | 0 kts | 240° |
| 2026-05-08 15:28 | 35.55160 | 139.78957 | 32 ft | 0 kts | 240° |
| 2026-05-08 15:40 | 35.55161 | 139.78957 | 32 ft | 0 kts | 240° |
| 2026-05-08 15:45 | 35.55162 | 139.78960 | 32 ft | 2 kts | 240° |
| 2026-05-08 15:45 | 35.55175 | 139.78987 | 31 ft | 4 kts | 240° |
| 2026-05-08 15:45 | 35.55186 | 139.79011 | 31 ft | 4 kts | 254° |
| 2026-05-08 15:45 | 35.55185 | 139.79039 | 32 ft | 4 kts | 308° |
| 2026-05-08 15:46 | 35.55165 | 139.79060 | 32 ft | 3 kts | 329° |
| 2026-05-08 15:46 | 35.55158 | 139.79066 | 32 ft | 0 kts | 329° |
| 2026-05-08 15:47 | 35.55157 | 139.79066 | 32 ft | 0 kts | 329° |
| 2026-05-08 15:48 | 35.55159 | 139.79065 | 32 ft | 2 kts | 330° |
| 2026-05-08 15:49 | 35.55206 | 139.79072 | 32 ft | 8 kts | 34° |
| 2026-05-08 15:49 | 35.55242 | 139.79133 | 32 ft | 10 kts | 61° |
| 2026-05-08 15:49 | 35.55241 | 139.79214 | 31 ft | 10 kts | 126° |
| 2026-05-08 15:49 | 35.55181 | 139.79270 | 30 ft | 12 kts | 145° |
| 2026-05-08 15:50 | 35.55110 | 139.79324 | 30 ft | 12 kts | 150° |
| 2026-05-08 15:50 | 35.55036 | 139.79375 | 31 ft | 12 kts | 150° |
| 2026-05-08 15:50 | 35.54962 | 139.79427 | 32 ft | 12 kts | 148° |
| 2026-05-08 15:50 | 35.54889 | 139.79481 | 32 ft | 12 kts | 149° |
| 2026-05-08 15:51 | 35.54812 | 139.79535 | 32 ft | 14 kts | 150° |
| 2026-05-08 15:51 | 35.54701 | 139.79614 | 29 ft | 23 kts | 150° |
| 2026-05-08 15:51 | 35.54547 | 139.79722 | 28 ft | 28 kts | 150° |
| 2026-05-08 15:51 | 35.54370 | 139.79846 | 29 ft | 29 kts | 149° |
| 2026-05-08 15:52 | 35.54194 | 139.79973 | 30 ft | 29 kts | 150° |
| 2026-05-08 15:52 | 35.54032 | 139.80088 | 27 ft | 22 kts | 150° |
| 2026-05-08 15:52 | 35.53906 | 139.80177 | 30 ft | 20 kts | 150° |
| 2026-05-08 15:52 | 35.53777 | 139.80177 | 28 ft | 19 kts | 178° |
| 2026-05-08 15:53 | 35.53655 | 139.80200 | 29 ft | 16 kts | 160° |
| 2026-05-08 15:53 | 35.53564 | 139.80247 | 33 ft | 13 kts | 152° |
| 2026-05-08 15:53 | 35.53462 | 139.80328 | 38 ft | 29 kts | 147° |
| 2026-05-08 15:53 | 35.53276 | 139.80462 | 45 ft | 30 kts | 150° |
| 2026-05-08 15:54 | 35.53114 | 139.80576 | 47 ft | 20 kts | 150° |
| 2026-05-08 15:54 | 35.52998 | 139.80566 | 47 ft | 18 kts | 220° |
| 2026-05-08 15:54 | 35.52909 | 139.80469 | 50 ft | 17 kts | 222° |
| 2026-05-08 15:54 | 35.52824 | 139.80374 | 47 ft | 16 kts | 222° |
| 2026-05-08 15:55 | 35.52741 | 139.80281 | 49 ft | 16 kts | 223° |
| 2026-05-08 15:55 | 35.52528 | 139.80205 | 51 ft | 19 kts | 135° |
| 2026-05-08 15:55 | 35.52448 | 139.80317 | 52 ft | 13 kts | 122° |
| 2026-05-08 15:56 | 35.52458 | 139.80408 | 56 ft | 14 kts | 50° |
| 2026-05-08 15:56 | 35.52607 | 139.80577 | 51 ft | 63 kts | 43° |
| 2026-05-08 15:56 | 35.53243 | 139.81290 | 56 ft | 184 kts | 43° |
| 2026-05-08 15:56 | 35.54248 | 139.82469 | 1309 ft | 200 kts | 41° |
| 2026-05-08 15:57 | 35.55250 | 139.83622 | 3271 ft | 196 kts | 39° |
| 2026-05-08 15:57 | 35.56220 | 139.84766 | 5135 ft | 193 kts | 54° |
| 2026-05-08 15:57 | 35.56632 | 139.86332 | 6444 ft | 200 kts | 91° |
| 2026-05-08 15:57 | 35.56284 | 139.88092 | 6792 ft | 228 kts | 113° |
| 2026-05-08 15:58 | 35.55689 | 139.90027 | 7122 ft | 257 kts | 115° |
| 2026-05-08 15:58 | 35.55005 | 139.92184 | 7548 ft | 278 kts | 121° |
| 2026-05-08 15:58 | 35.53794 | 139.94009 | 8289 ft | 276 kts | 152° |
| 2026-05-08 15:58 | 35.52072 | 139.94847 | 9149 ft | 270 kts | 179° |
| 2026-05-08 15:59 | 35.50202 | 139.94729 | 10210 ft | 263 kts | 196° |
| 2026-05-08 15:59 | 35.48360 | 139.94285 | 10976 ft | 281 kts | 197° |
| 2026-05-08 15:59 | 35.46378 | 139.93697 | 11218 ft | 304 kts | 206° |
| 2026-05-08 15:59 | 35.44528 | 139.92293 | 11519 ft | 325 kts | 225° |
| 2026-05-08 16:00 | 35.42953 | 139.90249 | 12349 ft | 332 kts | 229° |
| 2026-05-08 16:00 | 35.41390 | 139.88137 | 13411 ft | 336 kts | 229° |
| 2026-05-08 16:00 | 35.39830 | 139.86037 | 14441 ft | 340 kts | 229° |
| 2026-05-08 16:00 | 35.38226 | 139.83886 | 15458 ft | 344 kts | 229° |
| 2026-05-08 16:01 | 35.36597 | 139.81707 | 16469 ft | 348 kts | 229° |
| 2026-05-08 16:01 | 35.34942 | 139.79505 | 17426 ft | 353 kts | 229° |
| 2026-05-08 16:01 | 35.33265 | 139.77280 | 18303 ft | 358 kts | 229° |
| 2026-05-08 16:01 | 35.31562 | 139.75024 | 19186 ft | 362 kts | 229° |
| 2026-05-08 16:02 | 35.29767 | 139.72862 | 19713 ft | 362 kts | 225° |
| 2026-05-08 16:02 | 35.27843 | 139.70839 | 19726 ft | 367 kts | 223° |
| 2026-05-08 16:02 | 35.25863 | 139.68844 | 19732 ft | 369 kts | 223° |
| 2026-05-08 16:02 | 35.23879 | 139.66844 | 19841 ft | 371 kts | 223° |
| 2026-05-08 16:03 | 35.21893 | 139.64814 | 20638 ft | 374 kts | 223° |
| 2026-05-08 16:03 | 35.19926 | 139.62784 | 21468 ft | 376 kts | 224° |
| 2026-05-08 16:03 | 35.17928 | 139.60711 | 22285 ft | 378 kts | 224° |
| 2026-05-08 16:03 | 35.15915 | 139.58617 | 22996 ft | 382 kts | 224° |
| 2026-05-08 16:04 | 35.13882 | 139.56499 | 23668 ft | 386 kts | 224° |
| 2026-05-08 16:04 | 35.11832 | 139.54366 | 24281 ft | 389 kts | 224° |
| 2026-05-08 16:04 | 35.09786 | 139.52198 | 24822 ft | 388 kts | 228° |
| 2026-05-08 16:04 | 35.08122 | 139.49596 | 25229 ft | 392 kts | 240° |
| 2026-05-08 16:05 | 35.06910 | 139.46614 | 25856 ft | 394 kts | 248° |
| 2026-05-08 16:05 | 35.06196 | 139.43366 | 26439 ft | 399 kts | 256° |
| 2026-05-08 16:05 | 35.05684 | 139.40033 | 26988 ft | 401 kts | 256° |
| 2026-05-08 16:05 | 35.05163 | 139.36672 | 27497 ft | 405 kts | 256° |
| 2026-05-08 16:06 | 35.04622 | 139.33288 | 27990 ft | 408 kts | 255° |
| 2026-05-08 16:06 | 35.04059 | 139.29885 | 28474 ft | 410 kts | 255° |
| 2026-05-08 16:06 | 35.03483 | 139.26467 | 28950 ft | 412 kts | 255° |
| 2026-05-08 16:06 | 35.02903 | 139.23033 | 29386 ft | 414 kts | 255° |
| 2026-05-08 16:07 | 35.02329 | 139.19587 | 29883 ft | 415 kts | 255° |
| 2026-05-08 16:07 | 35.01759 | 139.16145 | 30463 ft | 413 kts | 255° |
| 2026-05-08 16:07 | 35.01193 | 139.12724 | 31090 ft | 410 kts | 255° |
| 2026-05-08 16:07 | 35.00628 | 139.09327 | 31651 ft | 408 kts | 255° |
| 2026-05-08 16:08 | 35.00062 | 139.05932 | 31765 ft | 409 kts | 255° |
| 2026-05-08 16:08 | 34.99495 | 139.02546 | 31780 ft | 407 kts | 254° |
| 2026-05-08 16:08 | 34.98623 | 138.95722 | 31782 ft | 410 kts | 261° |
| 2026-05-08 16:09 | 34.98349 | 138.89922 | 31785 ft | 408 kts | 261° |
| 2026-05-08 16:09 | 34.97933 | 138.81913 | 31818 ft | 407 kts | 261° |
| 2026-05-08 16:10 | 34.97561 | 138.74975 | 31787 ft | 412 kts | 261° |
| 2026-05-08 16:10 | 34.97184 | 138.67989 | 31798 ft | 413 kts | 261° |
| 2026-05-08 16:11 | 34.96803 | 138.61002 | 31795 ft | 413 kts | 261° |
| 2026-05-08 16:11 | 34.96418 | 138.54016 | 31797 ft | 412 kts | 261° |
| 2026-05-08 16:12 | 34.96030 | 138.47052 | 31795 ft | 411 kts | 261° |
| 2026-05-08 16:12 | 34.95639 | 138.40108 | 31804 ft | 410 kts | 261° |
| 2026-05-08 16:13 | 34.95245 | 138.33177 | 31810 ft | 409 kts | 260° |
| 2026-05-08 16:13 | 34.94851 | 138.26261 | 31806 ft | 409 kts | 260° |
| 2026-05-08 16:14 | 34.94448 | 138.19337 | 31808 ft | 409 kts | 260° |
| 2026-05-08 16:14 | 34.94110 | 138.13586 | 31803 ft | 409 kts | 260° |
| 2026-05-08 16:15 | 34.93706 | 138.06667 | 31802 ft | 409 kts | 260° |
| 2026-05-08 16:15 | 34.93235 | 137.98600 | 31803 ft | 408 kts | 260° |
| 2026-05-08 16:16 | 34.92892 | 137.92878 | 31816 ft | 407 kts | 260° |
| 2026-05-08 16:16 | 34.92478 | 137.86013 | 31806 ft | 406 kts | 260° |
| 2026-05-08 16:17 | 34.92069 | 137.79166 | 31818 ft | 405 kts | 260° |
| 2026-05-08 16:17 | 34.91660 | 137.72317 | 31825 ft | 404 kts | 258° |
| 2026-05-08 16:18 | 34.90608 | 137.65637 | 31838 ft | 400 kts | 252° |
| 2026-05-08 16:18 | 34.88900 | 137.59206 | 31852 ft | 399 kts | 247° |
| 2026-05-08 16:19 | 34.86957 | 137.52878 | 31856 ft | 399 kts | 247° |
| 2026-05-08 16:19 | 34.85038 | 137.46532 | 31888 ft | 399 kts | 248° |
| 2026-05-08 16:20 | 34.83203 | 137.40137 | 31892 ft | 400 kts | 248° |
| 2026-05-08 16:20 | 34.81393 | 137.33734 | 31902 ft | 400 kts | 248° |
| 2026-05-08 16:21 | 34.79571 | 137.27333 | 31916 ft | 400 kts | 248° |
| 2026-05-08 16:21 | 34.77748 | 137.20961 | 31918 ft | 394 kts | 248° |
| 2026-05-08 16:22 | 34.76852 | 137.17833 | 31489 ft | 391 kts | 248° |
| 2026-05-08 16:22 | 34.75956 | 137.14716 | 30786 ft | 390 kts | 248° |
| 2026-05-08 16:22 | 34.75067 | 137.11626 | 30111 ft | 386 kts | 248° |
| 2026-05-08 16:22 | 34.74182 | 137.08557 | 29389 ft | 384 kts | 248° |
| 2026-05-08 16:23 | 34.73302 | 137.05503 | 28665 ft | 381 kts | 249° |
| 2026-05-08 16:23 | 34.72427 | 137.02470 | 27957 ft | 379 kts | 249° |
| 2026-05-08 16:23 | 34.71558 | 136.99460 | 27253 ft | 377 kts | 249° |
| 2026-05-08 16:23 | 34.70704 | 136.96508 | 26561 ft | 374 kts | 249° |
| 2026-05-08 16:24 | 34.69843 | 136.93539 | 25873 ft | 371 kts | 249° |
| 2026-05-08 16:24 | 34.68986 | 136.90594 | 25189 ft | 368 kts | 249° |
| 2026-05-08 16:24 | 34.68135 | 136.87672 | 24515 ft | 365 kts | 249° |
| 2026-05-08 16:24 | 34.67289 | 136.84773 | 23849 ft | 363 kts | 249° |
| 2026-05-08 16:25 | 34.66449 | 136.81899 | 23197 ft | 360 kts | 249° |
| 2026-05-08 16:25 | 34.65617 | 136.79048 | 22562 ft | 356 kts | 250° |
| 2026-05-08 16:25 | 34.64792 | 136.76229 | 21941 ft | 353 kts | 249° |
| 2026-05-08 16:25 | 34.63973 | 136.73431 | 21330 ft | 350 kts | 250° |
| 2026-05-08 16:26 | 34.63161 | 136.70657 | 20732 ft | 347 kts | 250° |
| 2026-05-08 16:26 | 34.62354 | 136.67908 | 20137 ft | 344 kts | 250° |
| 2026-05-08 16:26 | 34.61553 | 136.65179 | 19558 ft | 342 kts | 250° |
| 2026-05-08 16:26 | 34.60757 | 136.62469 | 18960 ft | 340 kts | 250° |
| 2026-05-08 16:27 | 34.59965 | 136.59776 | 18393 ft | 337 kts | 250° |
| 2026-05-08 16:27 | 34.59179 | 136.57103 | 17822 ft | 336 kts | 250° |
| 2026-05-08 16:27 | 34.58397 | 136.54445 | 17254 ft | 334 kts | 250° |
| 2026-05-08 16:27 | 34.57616 | 136.51795 | 16690 ft | 332 kts | 250° |
| 2026-05-08 16:28 | 34.56839 | 136.49162 | 16128 ft | 331 kts | 250° |
| 2026-05-08 16:28 | 34.56065 | 136.46543 | 15569 ft | 329 kts | 250° |
| 2026-05-08 16:28 | 34.55295 | 136.43939 | 14999 ft | 327 kts | 250° |
| 2026-05-08 16:28 | 34.54531 | 136.41354 | 14472 ft | 324 kts | 250° |
| 2026-05-08 16:29 | 34.53771 | 136.38782 | 13915 ft | 323 kts | 250° |
| 2026-05-08 16:29 | 34.53012 | 136.36223 | 13377 ft | 322 kts | 250° |
| 2026-05-08 16:29 | 34.52266 | 136.33681 | 12801 ft | 318 kts | 251° |
| 2026-05-08 16:29 | 34.51652 | 136.31115 | 12326 ft | 316 kts | 256° |
| 2026-05-08 16:30 | 34.51237 | 136.28499 | 11791 ft | 315 kts | 259° |
| 2026-05-08 16:30 | 34.50895 | 136.25882 | 11280 ft | 314 kts | 260° |
| 2026-05-08 16:30 | 34.50570 | 136.23276 | 10913 ft | 309 kts | 260° |
| 2026-05-08 16:30 | 34.50250 | 136.20754 | 10782 ft | 297 kts | 260° |
| 2026-05-08 16:31 | 34.49938 | 136.18317 | 10627 ft | 288 kts | 260° |
| 2026-05-08 16:31 | 34.49632 | 136.15956 | 10491 ft | 279 kts | 260° |
| 2026-05-08 16:31 | 34.49335 | 136.13678 | 10386 ft | 269 kts | 260° |
| 2026-05-08 16:31 | 34.49044 | 136.11479 | 10283 ft | 260 kts | 260° |
| 2026-05-08 16:32 | 34.48765 | 136.09337 | 10169 ft | 251 kts | 263° |
| 2026-05-08 16:32 | 34.48849 | 136.07269 | 10065 ft | 243 kts | 280° |
| 2026-05-08 16:32 | 34.49319 | 136.05329 | 9949 ft | 238 kts | 285° |
| 2026-05-08 16:32 | 34.49859 | 136.03433 | 9667 ft | 237 kts | 285° |
| 2026-05-08 16:33 | 34.50399 | 136.01568 | 9409 ft | 232 kts | 286° |
| 2026-05-08 16:33 | 34.50939 | 135.99706 | 9090 ft | 238 kts | 286° |
| 2026-05-08 16:33 | 34.51486 | 135.97787 | 8799 ft | 243 kts | 287° |
| 2026-05-08 16:33 | 34.52037 | 135.95841 | 8517 ft | 244 kts | 287° |
| 2026-05-08 16:34 | 34.52586 | 135.93889 | 8196 ft | 245 kts | 288° |
| 2026-05-08 16:34 | 34.53125 | 135.91965 | 7899 ft | 244 kts | 288° |
| 2026-05-08 16:34 | 34.53668 | 135.90018 | 7591 ft | 244 kts | 288° |
| 2026-05-08 16:34 | 34.54202 | 135.88083 | 7298 ft | 238 kts | 289° |
| 2026-05-08 16:35 | 34.54732 | 135.86180 | 6984 ft | 238 kts | 289° |
| 2026-05-08 16:35 | 34.55252 | 135.84289 | 6717 ft | 236 kts | 289° |
| 2026-05-08 16:35 | 34.55767 | 135.82410 | 6422 ft | 234 kts | 289° |
| 2026-05-08 16:35 | 34.56279 | 135.80546 | 6152 ft | 232 kts | 289° |
| 2026-05-08 16:36 | 34.56787 | 135.78706 | 5876 ft | 229 kts | 290° |
| 2026-05-08 16:36 | 34.57290 | 135.76872 | 5574 ft | 229 kts | 290° |
| 2026-05-08 16:36 | 34.57790 | 135.75044 | 5294 ft | 228 kts | 290° |
| 2026-05-08 16:36 | 34.58287 | 135.73244 | 5052 ft | 225 kts | 290° |
| 2026-05-08 16:37 | 34.58768 | 135.71485 | 4965 ft | 217 kts | 290° |
| 2026-05-08 16:37 | 34.59232 | 135.69780 | 4838 ft | 208 kts | 291° |
| 2026-05-08 16:37 | 34.59696 | 135.68160 | 4761 ft | 199 kts | 291° |
| 2026-05-08 16:37 | 34.60142 | 135.66627 | 4660 ft | 186 kts | 291° |
| 2026-05-08 16:38 | 34.60663 | 135.65241 | 4488 ft | 179 kts | 310° |
| 2026-05-08 16:38 | 34.61546 | 135.64200 | 4341 ft | 179 kts | 315° |
| 2026-05-08 16:38 | 34.62428 | 135.63122 | 4127 ft | 180 kts | 314° |
| 2026-05-08 16:38 | 34.63303 | 135.62045 | 3891 ft | 177 kts | 314° |
| 2026-05-08 16:39 | 34.64154 | 135.61007 | 3724 ft | 168 kts | 315° |
| 2026-05-08 16:39 | 34.64943 | 135.60045 | 3561 ft | 152 kts | 315° |
| 2026-05-08 16:39 | 34.65647 | 135.59178 | 3515 ft | 141 kts | 315° |
| 2026-05-08 16:39 | 34.66379 | 135.58301 | 3528 ft | 155 kts | 314° |
| 2026-05-08 16:40 | 34.67154 | 135.57348 | 3301 ft | 161 kts | 315° |
| 2026-05-08 16:40 | 34.67945 | 135.56385 | 2835 ft | 163 kts | 315° |
| 2026-05-08 16:40 | 34.68777 | 135.55383 | 2285 ft | 165 kts | 315° |
| 2026-05-08 16:40 | 34.69593 | 135.54408 | 2104 ft | 166 kts | 316° |
| 2026-05-08 16:41 | 34.70374 | 135.53475 | 1923 ft | 150 kts | 314° |
| 2026-05-08 16:41 | 34.71061 | 135.52624 | 1709 ft | 133 kts | 316° |
| 2026-05-08 16:41 | 34.71707 | 135.51842 | 1566 ft | 134 kts | 316° |
| 2026-05-08 16:42 | 34.73053 | 135.50216 | 1207 ft | 140 kts | 315° |
| 2026-05-08 16:42 | 34.73753 | 135.49372 | 1021 ft | 139 kts | 315° |
| 2026-05-08 16:42 | 34.74429 | 135.48555 | 838 ft | 139 kts | 315° |
| 2026-05-08 16:42 | 34.75121 | 135.47720 | 653 ft | 138 kts | 315° |
| 2026-05-08 16:43 | 34.75801 | 135.46898 | 462 ft | 138 kts | 315° |
| 2026-05-08 16:43 | 34.76468 | 135.46087 | 294 ft | 137 kts | 315° |
| 2026-05-08 16:43 | 34.77138 | 135.45281 | 110 ft | 134 kts | 315° |
| 2026-05-08 16:43 | 34.77782 | 135.44502 | 50 ft | 122 kts | 315° |
| 2026-05-08 16:44 | 34.78255 | 135.43928 | 53 ft | 70 kts | 315° |
| 2026-05-08 16:44 | 34.78520 | 135.43608 | 50 ft | 49 kts | 317° |
| 2026-05-08 16:44 | 34.78740 | 135.43480 | 50 ft | 31 kts | 340° |
| 2026-05-08 16:44 | 34.78885 | 135.43427 | 49 ft | 19 kts | 354° |
| 2026-05-08 16:45 | 34.79014 | 135.43462 | 48 ft | 19 kts | 30° |
| 2026-05-08 16:45 | 34.79065 | 135.43590 | 49 ft | 19 kts | 118° |
| 2026-05-08 16:45 | 34.78992 | 135.43696 | 49 ft | 16 kts | 133° |
| 2026-05-08 16:45 | 34.78914 | 135.43793 | 53 ft | 16 kts | 134° |
| 2026-05-08 16:46 | 34.78836 | 135.43889 | 48 ft | 16 kts | 134° |
| 2026-05-08 16:46 | 34.78757 | 135.43985 | 50 ft | 16 kts | 135° |
| 2026-05-08 16:46 | 34.78721 | 135.44055 | 50 ft | 5 kts | 70° |
| 2026-05-08 16:46 | 34.78728 | 135.44114 | 49 ft | 12 kts | 97° |
| 2026-05-08 16:47 | 34.78711 | 135.44194 | 49 ft | 7 kts | 75° |
| 2026-05-08 16:47 | 34.78725 | 135.44231 | 51 ft | 3 kts | 62° |
| 2026-05-08 16:47 | 34.78736 | 135.44256 | 55 ft | 4 kts | 61° |
| 2026-05-08 16:47 | 34.78743 | 135.44270 | 50 ft | 0 kts | 60° |